sensor_id;sensor_type;location;lat;lon;timestamp;temperature;humidity
39957;DHT22;48483;44.640;7.494;2022-12-17T00:02:10;2.50;99.90
39957;DHT22;48483;44.640;7.494;2022-12-17T00:04:55;2.50;99.90
39957;DHT22;48483;44.640;7.494;2022-12-17T00:07:40;2.60;99.90
39957;DHT22;48483;44.640;7.494;2022-12-17T00:10:27;2.60;99.90
39957;DHT22;48483;44.640;7.494;2022-12-17T00:13:17;2.70;99.90
39957;DHT22;48483;44.640;7.494;2022-12-17T00:16:04;2.70;99.90
39957;DHT22;48483;44.640;7.494;2022-12-17T00:18:50;2.80;99.90
39957;DHT22;48483;44.640;7.494;2022-12-17T00:21:35;2.90;99.90
39957;DHT22;48483;44.640;7.494;2022-12-17T00:24:20;2.90;99.90
39957;DHT22;48483;44.640;7.494;2022-12-17T00:27:07;2.90;99.90
39957;DHT22;48483;44.640;7.494;2022-12-17T00:29:53;2.80;99.90
39957;DHT22;48483;44.640;7.494;2022-12-17T00:32:38;2.80;99.90
39957;DHT22;48483;44.640;7.494;2022-12-17T00:35:23;2.70;99.90
39957;DHT22;48483;44.640;7.494;2022-12-17T00:38:14;2.70;99.90
39957;DHT22;48483;44.640;7.494;2022-12-17T00:40:59;2.70;99.90
39957;DHT22;48483;44.640;7.494;2022-12-17T00:43:46;2.70;99.90
39957;DHT22;48483;44.640;7.494;2022-12-17T00:46:32;2.70;99.90
39957;DHT22;48483;44.640;7.494;2022-12-17T00:49:17;2.70;99.90
39957;DHT22;48483;44.640;7.494;2022-12-17T00:52:03;2.60;99.90
39957;DHT22;48483;44.640;7.494;2022-12-17T00:54:49;2.60;99.90
39957;DHT22;48483;44.640;7.494;2022-12-17T00:57:34;2.60;99.90
39957;DHT22;48483;44.640;7.494;2022-12-17T01:00:21;2.60;99.90
39957;DHT22;48483;44.640;7.494;2022-12-17T01:03:08;2.60;99.90
39957;DHT22;48483;44.640;7.494;2022-12-17T01:05:54;2.70;99.90
39957;DHT22;48483;44.640;7.494;2022-12-17T01:08:39;2.60;99.90
39957;DHT22;48483;44.640;7.494;2022-12-17T01:11:25;2.60;99.90
39957;DHT22;48483;44.640;7.494;2022-12-17T01:14:10;2.70;99.90
39957;DHT22;48483;44.640;7.494;2022-12-17T01:16:57;2.70;99.90
39957;DHT22;48483;44.640;7.494;2022-12-17T01:19:42;2.70;99.90
39957;DHT22;48483;44.640;7.494;2022-12-17T01:22:27;2.70;99.90
39957;DHT22;48483;44.640;7.494;2022-12-17T01:25:12;2.60;99.90
39957;DHT22;48483;44.640;7.494;2022-12-17T01:27:58;2.50;99.90
39957;DHT22;48483;44.640;7.494;2022-12-17T01:30:43;2.50;99.90
39957;DHT22;48483;44.640;7.494;2022-12-17T01:33:30;2.50;99.90
39957;DHT22;48483;44.640;7.494;2022-12-17T01:36:15;2.50;99.90
39957;DHT22;48483;44.640;7.494;2022-12-17T01:39:01;2.50;99.90
39957;DHT22;48483;44.640;7.494;2022-12-17T01:41:46;2.50;99.90
39957;DHT22;48483;44.640;7.494;2022-12-17T01:44:47;2.50;99.90
39957;DHT22;48483;44.640;7.494;2022-12-17T01:47:39;2.50;99.90
39957;DHT22;48483;44.640;7.494;2022-12-17T01:50:30;2.50;99.90
39957;DHT22;48483;44.640;7.494;2022-12-17T01:53:17;2.50;99.90
39957;DHT22;48483;44.640;7.494;2022-12-17T01:56:04;2.50;99.90
39957;DHT22;48483;44.640;7.494;2022-12-17T01:58:49;2.40;99.90
39957;DHT22;48483;44.640;7.494;2022-12-17T02:01:36;2.40;99.90
39957;DHT22;48483;44.640;7.494;2022-12-17T02:04:22;2.40;99.90
39957;DHT22;48483;44.640;7.494;2022-12-17T02:07:19;2.30;99.90
39957;DHT22;48483;44.640;7.494;2022-12-17T02:10:19;2.40;99.90
39957;DHT22;48483;44.640;7.494;2022-12-17T02:13:11;2.50;99.90
39957;DHT22;48483;44.640;7.494;2022-12-17T02:16:06;2.50;99.90
39957;DHT22;48483;44.640;7.494;2022-12-17T02:18:57;2.60;99.90
39957;DHT22;48483;44.640;7.494;2022-12-17T02:21:45;2.50;99.90
39957;DHT22;48483;44.640;7.494;2022-12-17T02:24:38;2.50;99.90
39957;DHT22;48483;44.640;7.494;2022-12-17T02:27:30;2.60;99.90
39957;DHT22;48483;44.640;7.494;2022-12-17T02:30:15;2.60;99.90
39957;DHT22;48483;44.640;7.494;2022-12-17T02:33:01;2.60;99.90
39957;DHT22;48483;44.640;7.494;2022-12-17T02:36:04;2.60;99.90
39957;DHT22;48483;44.640;7.494;2022-12-17T02:38:50;2.70;99.90
39957;DHT22;48483;44.640;7.494;2022-12-17T02:41:52;2.60;99.90
39957;DHT22;48483;44.640;7.494;2022-12-17T02:44:42;2.50;99.90
39957;DHT22;48483;44.640;7.494;2022-12-17T02:47:27;2.50;99.90
39957;DHT22;48483;44.640;7.494;2022-12-17T02:50:13;2.50;99.90
39957;DHT22;48483;44.640;7.494;2022-12-17T02:52:59;2.50;99.90
39957;DHT22;48483;44.640;7.494;2022-12-17T02:55:44;2.40;99.90
39957;DHT22;48483;44.640;7.494;2022-12-17T02:58:32;2.30;99.90
39957;DHT22;48483;44.640;7.494;2022-12-17T03:01:18;2.30;99.90
39957;DHT22;48483;44.640;7.494;2022-12-17T03:04:04;2.30;99.90
39957;DHT22;48483;44.640;7.494;2022-12-17T03:06:49;2.30;99.90
39957;DHT22;48483;44.640;7.494;2022-12-17T03:09:34;2.30;99.90
39957;DHT22;48483;44.640;7.494;2022-12-17T03:12:20;2.30;99.90
39957;DHT22;48483;44.640;7.494;2022-12-17T03:15:06;2.40;99.90
39957;DHT22;48483;44.640;7.494;2022-12-17T03:17:53;2.40;99.90
39957;DHT22;48483;44.640;7.494;2022-12-17T03:20:37;2.40;99.90
39957;DHT22;48483;44.640;7.494;2022-12-17T03:23:22;2.40;99.90
39957;DHT22;48483;44.640;7.494;2022-12-17T03:26:08;2.30;99.90
39957;DHT22;48483;44.640;7.494;2022-12-17T03:28:53;2.30;99.90
39957;DHT22;48483;44.640;7.494;2022-12-17T03:31:38;2.30;99.90
39957;DHT22;48483;44.640;7.494;2022-12-17T03:34:24;2.30;99.90
39957;DHT22;48483;44.640;7.494;2022-12-17T03:37:09;2.20;99.90
39957;DHT22;48483;44.640;7.494;2022-12-17T03:39:54;2.20;99.90
39957;DHT22;48483;44.640;7.494;2022-12-17T03:42:39;2.10;99.90
39957;DHT22;48483;44.640;7.494;2022-12-17T03:45:25;2.10;99.90
39957;DHT22;48483;44.640;7.494;2022-12-17T03:48:11;2.10;99.90
39957;DHT22;48483;44.640;7.494;2022-12-17T03:50:58;2.10;99.90
39957;DHT22;48483;44.640;7.494;2022-12-17T03:53:44;2.10;99.90
39957;DHT22;48483;44.640;7.494;2022-12-17T03:56:30;2.10;99.90
39957;DHT22;48483;44.640;7.494;2022-12-17T03:59:15;2.10;99.90
39957;DHT22;48483;44.640;7.494;2022-12-17T04:02:01;2.10;99.90
39957;DHT22;48483;44.640;7.494;2022-12-17T04:04:46;2.10;99.90
39957;DHT22;48483;44.640;7.494;2022-12-17T04:07:32;2.10;99.90
39957;DHT22;48483;44.640;7.494;2022-12-17T04:10:18;2.10;99.90
39957;DHT22;48483;44.640;7.494;2022-12-17T04:13:03;2.10;99.90
39957;DHT22;48483;44.640;7.494;2022-12-17T04:15:49;2.00;99.90
39957;DHT22;48483;44.640;7.494;2022-12-17T04:18:34;2.00;99.90
39957;DHT22;48483;44.640;7.494;2022-12-17T04:21:19;2.00;99.90
39957;DHT22;48483;44.640;7.494;2022-12-17T04:24:06;1.90;99.90
39957;DHT22;48483;44.640;7.494;2022-12-17T04:26:51;2.00;99.90
39957;DHT22;48483;44.640;7.494;2022-12-17T04:29:36;2.00;99.90
39957;DHT22;48483;44.640;7.494;2022-12-17T04:32:22;2.00;99.90
39957;DHT22;48483;44.640;7.494;2022-12-17T04:35:07;1.90;99.90
39957;DHT22;48483;44.640;7.494;2022-12-17T04:37:52;1.90;99.90
39957;DHT22;48483;44.640;7.494;2022-12-17T04:40:39;2.00;99.90
39957;DHT22;48483;44.640;7.494;2022-12-17T04:43:41;2.00;99.90
39957;DHT22;48483;44.640;7.494;2022-12-17T04:46:27;2.00;99.90
39957;DHT22;48483;44.640;7.494;2022-12-17T04:49:12;2.10;99.90
39957;DHT22;48483;44.640;7.494;2022-12-17T04:51:57;2.00;99.90
39957;DHT22;48483;44.640;7.494;2022-12-17T04:54:42;2.00;99.90
39957;DHT22;48483;44.640;7.494;2022-12-17T04:57:29;2.00;99.90
39957;DHT22;48483;44.640;7.494;2022-12-17T05:00:14;2.00;99.90
39957;DHT22;48483;44.640;7.494;2022-12-17T05:03:04;2.00;99.90
39957;DHT22;48483;44.640;7.494;2022-12-17T05:05:49;2.00;99.90
39957;DHT22;48483;44.640;7.494;2022-12-17T05:08:34;2.10;99.90
39957;DHT22;48483;44.640;7.494;2022-12-17T05:11:19;2.00;99.90
39957;DHT22;48483;44.640;7.494;2022-12-17T05:14:06;2.00;99.90
39957;DHT22;48483;44.640;7.494;2022-12-17T05:16:51;2.00;99.90
39957;DHT22;48483;44.640;7.494;2022-12-17T05:19:36;2.10;99.90
39957;DHT22;48483;44.640;7.494;2022-12-17T05:22:21;2.00;99.90
39957;DHT22;48483;44.640;7.494;2022-12-17T05:25:07;2.00;99.90
39957;DHT22;48483;44.640;7.494;2022-12-17T05:27:52;1.90;99.90
39957;DHT22;48483;44.640;7.494;2022-12-17T05:30:40;1.80;99.90
39957;DHT22;48483;44.640;7.494;2022-12-17T05:33:25;1.80;99.90
39957;DHT22;48483;44.640;7.494;2022-12-17T05:36:10;1.90;99.90
39957;DHT22;48483;44.640;7.494;2022-12-17T05:38:55;1.90;99.90
39957;DHT22;48483;44.640;7.494;2022-12-17T05:41:40;1.90;99.90
39957;DHT22;48483;44.640;7.494;2022-12-17T05:44:27;2.00;99.90
39957;DHT22;48483;44.640;7.494;2022-12-17T05:47:13;2.00;99.90
39957;DHT22;48483;44.640;7.494;2022-12-17T05:49:58;2.00;99.90
39957;DHT22;48483;44.640;7.494;2022-12-17T05:52:43;2.00;99.90
39957;DHT22;48483;44.640;7.494;2022-12-17T05:55:29;2.10;99.90
39957;DHT22;48483;44.640;7.494;2022-12-17T05:58:14;2.00;99.90
39957;DHT22;48483;44.640;7.494;2022-12-17T06:01:02;2.00;99.90
39957;DHT22;48483;44.640;7.494;2022-12-17T06:03:49;2.10;99.90
39957;DHT22;48483;44.640;7.494;2022-12-17T06:06:34;2.20;99.90
39957;DHT22;48483;44.640;7.494;2022-12-17T06:09:19;2.30;99.90
39957;DHT22;48483;44.640;7.494;2022-12-17T06:12:05;2.40;99.90
39957;DHT22;48483;44.640;7.494;2022-12-17T06:14:50;2.40;99.90
39957;DHT22;48483;44.640;7.494;2022-12-17T06:17:35;2.50;99.90
39957;DHT22;48483;44.640;7.494;2022-12-17T06:20:22;2.40;99.90
39957;DHT22;48483;44.640;7.494;2022-12-17T06:23:09;2.30;99.90
39957;DHT22;48483;44.640;7.494;2022-12-17T06:25:55;2.40;99.90
39957;DHT22;48483;44.640;7.494;2022-12-17T06:28:41;2.40;99.90
39957;DHT22;48483;44.640;7.494;2022-12-17T06:31:26;2.40;99.90
39957;DHT22;48483;44.640;7.494;2022-12-17T06:34:12;2.40;99.90
39957;DHT22;48483;44.640;7.494;2022-12-17T06:36:58;2.40;99.90
39957;DHT22;48483;44.640;7.494;2022-12-17T06:39:44;2.40;99.90
39957;DHT22;48483;44.640;7.494;2022-12-17T06:42:28;2.30;99.90
39957;DHT22;48483;44.640;7.494;2022-12-17T06:45:14;2.30;99.90
39957;DHT22;48483;44.640;7.494;2022-12-17T06:48:17;2.20;99.90
39957;DHT22;48483;44.640;7.494;2022-12-17T06:51:03;2.10;99.90
39957;DHT22;48483;44.640;7.494;2022-12-17T06:53:49;2.10;99.90
39957;DHT22;48483;44.640;7.494;2022-12-17T06:56:35;2.10;99.90
39957;DHT22;48483;44.640;7.494;2022-12-17T06:59:20;2.20;99.90
39957;DHT22;48483;44.640;7.494;2022-12-17T07:02:10;2.20;99.90
39957;DHT22;48483;44.640;7.494;2022-12-17T07:04:55;2.20;99.90
39957;DHT22;48483;44.640;7.494;2022-12-17T07:07:40;2.20;99.90
39957;DHT22;48483;44.640;7.494;2022-12-17T07:10:27;2.20;99.90
39957;DHT22;48483;44.640;7.494;2022-12-17T07:13:12;2.10;99.90
39957;DHT22;48483;44.640;7.494;2022-12-17T07:15:57;2.10;99.90
39957;DHT22;48483;44.640;7.494;2022-12-17T07:18:42;2.10;99.90
39957;DHT22;48483;44.640;7.494;2022-12-17T07:21:27;2.10;99.90
39957;DHT22;48483;44.640;7.494;2022-12-17T07:24:12;2.10;99.90
39957;DHT22;48483;44.640;7.494;2022-12-17T07:26:59;2.20;99.90
39957;DHT22;48483;44.640;7.494;2022-12-17T07:30:05;2.20;99.90
39957;DHT22;48483;44.640;7.494;2022-12-17T07:32:57;2.30;99.90
39957;DHT22;48483;44.640;7.494;2022-12-17T07:35:42;2.20;99.90
39957;DHT22;48483;44.640;7.494;2022-12-17T07:38:27;2.30;99.90
39957;DHT22;48483;44.640;7.494;2022-12-17T07:41:12;2.40;99.90
39957;DHT22;48483;44.640;7.494;2022-12-17T07:44:00;2.30;99.90
39957;DHT22;48483;44.640;7.494;2022-12-17T07:46:45;2.30;99.90
39957;DHT22;48483;44.640;7.494;2022-12-17T07:49:30;2.40;99.90
39957;DHT22;48483;44.640;7.494;2022-12-17T07:52:15;2.40;99.90
39957;DHT22;48483;44.640;7.494;2022-12-17T07:55:00;2.50;99.90
39957;DHT22;48483;44.640;7.494;2022-12-17T07:57:46;2.60;99.90
39957;DHT22;48483;44.640;7.494;2022-12-17T08:00:32;2.60;99.90
39957;DHT22;48483;44.640;7.494;2022-12-17T08:03:17;2.70;99.90
39957;DHT22;48483;44.640;7.494;2022-12-17T08:06:03;2.80;99.90
39957;DHT22;48483;44.640;7.494;2022-12-17T08:08:48;3.00;99.90
39957;DHT22;48483;44.640;7.494;2022-12-17T08:11:33;3.00;99.90
39957;DHT22;48483;44.640;7.494;2022-12-17T08:14:18;3.00;99.90
39957;DHT22;48483;44.640;7.494;2022-12-17T08:17:05;3.10;99.90
39957;DHT22;48483;44.640;7.494;2022-12-17T08:19:50;3.10;99.90
39957;DHT22;48483;44.640;7.494;2022-12-17T08:22:35;3.10;99.90
39957;DHT22;48483;44.640;7.494;2022-12-17T08:25:20;3.20;99.90
39957;DHT22;48483;44.640;7.494;2022-12-17T08:28:07;3.30;99.90
39957;DHT22;48483;44.640;7.494;2022-12-17T08:30:52;3.30;99.90
39957;DHT22;48483;44.640;7.494;2022-12-17T08:33:39;3.40;99.90
39957;DHT22;48483;44.640;7.494;2022-12-17T08:36:24;3.50;99.90
39957;DHT22;48483;44.640;7.494;2022-12-17T08:39:09;3.50;99.90
39957;DHT22;48483;44.640;7.494;2022-12-17T08:41:54;3.50;99.90
39957;DHT22;48483;44.640;7.494;2022-12-17T08:44:40;3.60;99.90
39957;DHT22;48483;44.640;7.494;2022-12-17T08:47:25;3.60;99.90
39957;DHT22;48483;44.640;7.494;2022-12-17T08:50:12;3.70;99.90
39957;DHT22;48483;44.640;7.494;2022-12-17T08:52:57;3.70;99.90
39957;DHT22;48483;44.640;7.494;2022-12-17T08:55:43;3.80;99.90
39957;DHT22;48483;44.640;7.494;2022-12-17T08:58:28;3.90;99.90
39957;DHT22;48483;44.640;7.494;2022-12-17T09:01:13;3.90;99.90
39957;DHT22;48483;44.640;7.494;2022-12-17T09:03:58;4.00;99.90
39957;DHT22;48483;44.640;7.494;2022-12-17T09:06:46;4.00;99.90
39957;DHT22;48483;44.640;7.494;2022-12-17T09:09:31;4.10;99.90
39957;DHT22;48483;44.640;7.494;2022-12-17T09:12:16;4.10;99.90
39957;DHT22;48483;44.640;7.494;2022-12-17T09:15:01;4.10;99.90
39957;DHT22;48483;44.640;7.494;2022-12-17T09:17:46;4.20;99.90
39957;DHT22;48483;44.640;7.494;2022-12-17T09:20:32;4.20;99.90
39957;DHT22;48483;44.640;7.494;2022-12-17T09:23:18;4.20;99.90
39957;DHT22;48483;44.640;7.494;2022-12-17T09:26:03;4.20;99.90
39957;DHT22;48483;44.640;7.494;2022-12-17T09:28:49;4.30;99.90
39957;DHT22;48483;44.640;7.494;2022-12-17T09:31:34;4.30;99.90
39957;DHT22;48483;44.640;7.494;2022-12-17T09:34:19;4.30;99.90
39957;DHT22;48483;44.640;7.494;2022-12-17T09:37:05;4.40;99.90
39957;DHT22;48483;44.640;7.494;2022-12-17T09:39:51;4.40;99.90
39957;DHT22;48483;44.640;7.494;2022-12-17T09:42:41;4.50;99.90
39957;DHT22;48483;44.640;7.494;2022-12-17T09:45:31;4.50;99.90
39957;DHT22;48483;44.640;7.494;2022-12-17T09:48:23;4.50;99.90
39957;DHT22;48483;44.640;7.494;2022-12-17T09:51:20;4.60;99.90
39957;DHT22;48483;44.640;7.494;2022-12-17T09:54:13;4.70;99.90
39957;DHT22;48483;44.640;7.494;2022-12-17T09:57:12;4.70;99.90
39957;DHT22;48483;44.640;7.494;2022-12-17T10:00:02;4.80;99.90
39957;DHT22;48483;44.640;7.494;2022-12-17T10:02:47;4.90;99.90
39957;DHT22;48483;44.640;7.494;2022-12-17T10:05:33;4.90;99.90
39957;DHT22;48483;44.640;7.494;2022-12-17T10:08:20;5.00;99.90
39957;DHT22;48483;44.640;7.494;2022-12-17T10:11:13;5.00;99.90
39957;DHT22;48483;44.640;7.494;2022-12-17T10:14:11;5.00;99.90
39957;DHT22;48483;44.640;7.494;2022-12-17T10:16:58;5.10;99.90
39957;DHT22;48483;44.640;7.494;2022-12-17T10:19:44;5.10;99.90
39957;DHT22;48483;44.640;7.494;2022-12-17T10:22:41;5.10;99.90
39957;DHT22;48483;44.640;7.494;2022-12-17T10:25:27;5.10;99.90
39957;DHT22;48483;44.640;7.494;2022-12-17T10:28:14;5.20;99.90
39957;DHT22;48483;44.640;7.494;2022-12-17T10:31:07;5.20;99.90
39957;DHT22;48483;44.640;7.494;2022-12-17T10:33:55;5.20;99.90
39957;DHT22;48483;44.640;7.494;2022-12-17T10:36:44;5.30;99.90
39957;DHT22;48483;44.640;7.494;2022-12-17T10:39:30;5.30;99.90
39957;DHT22;48483;44.640;7.494;2022-12-17T10:42:21;5.30;99.90
39957;DHT22;48483;44.640;7.494;2022-12-17T10:45:24;5.30;99.90
39957;DHT22;48483;44.640;7.494;2022-12-17T10:48:19;5.30;99.90
39957;DHT22;48483;44.640;7.494;2022-12-17T10:51:13;5.40;99.90
39957;DHT22;48483;44.640;7.494;2022-12-17T10:54:07;5.50;99.90
39957;DHT22;48483;44.640;7.494;2022-12-17T10:57:22;5.50;99.90
39957;DHT22;48483;44.640;7.494;2022-12-17T11:00:23;5.50;99.90
39957;DHT22;48483;44.640;7.494;2022-12-17T11:03:25;5.60;99.90
39957;DHT22;48483;44.640;7.494;2022-12-17T11:06:12;5.60;99.90
39957;DHT22;48483;44.640;7.494;2022-12-17T11:08:59;5.70;99.90
39957;DHT22;48483;44.640;7.494;2022-12-17T11:11:46;5.70;99.90
39957;DHT22;48483;44.640;7.494;2022-12-17T11:14:37;5.70;99.90
39957;DHT22;48483;44.640;7.494;2022-12-17T11:17:24;5.80;99.90
39957;DHT22;48483;44.640;7.494;2022-12-17T11:20:20;5.70;99.90
39957;DHT22;48483;44.640;7.494;2022-12-17T11:23:13;5.70;99.90
39957;DHT22;48483;44.640;7.494;2022-12-17T11:26:03;5.70;99.90
39957;DHT22;48483;44.640;7.494;2022-12-17T11:28:50;5.70;99.90
39957;DHT22;48483;44.640;7.494;2022-12-17T11:31:51;5.70;99.90
39957;DHT22;48483;44.640;7.494;2022-12-17T11:34:54;5.80;99.90
39957;DHT22;48483;44.640;7.494;2022-12-17T11:37:49;5.80;99.90
39957;DHT22;48483;44.640;7.494;2022-12-17T11:40:38;5.90;99.90
39957;DHT22;48483;44.640;7.494;2022-12-17T11:43:28;6.00;99.90
39957;DHT22;48483;44.640;7.494;2022-12-17T11:46:22;6.10;99.90
39957;DHT22;48483;44.640;7.494;2022-12-17T11:49:21;6.10;99.90
39957;DHT22;48483;44.640;7.494;2022-12-17T11:52:12;6.20;99.90
39957;DHT22;48483;44.640;7.494;2022-12-17T11:55:05;6.30;99.90
39957;DHT22;48483;44.640;7.494;2022-12-17T11:57:58;6.40;99.90
39957;DHT22;48483;44.640;7.494;2022-12-17T12:00:51;6.50;99.90
39957;DHT22;48483;44.640;7.494;2022-12-17T12:03:47;6.50;99.90
39957;DHT22;48483;44.640;7.494;2022-12-17T12:06:42;6.60;99.90
39957;DHT22;48483;44.640;7.494;2022-12-17T12:09:37;6.60;99.90
39957;DHT22;48483;44.640;7.494;2022-12-17T12:12:40;6.70;99.90
39957;DHT22;48483;44.640;7.494;2022-12-17T12:15:35;6.80;99.90
39957;DHT22;48483;44.640;7.494;2022-12-17T12:18:29;6.80;99.90
39957;DHT22;48483;44.640;7.494;2022-12-17T12:21:35;6.90;99.90
39957;DHT22;48483;44.640;7.494;2022-12-17T12:24:38;6.90;99.90
39957;DHT22;48483;44.640;7.494;2022-12-17T12:27:35;6.90;99.90
39957;DHT22;48483;44.640;7.494;2022-12-17T12:30:23;7.00;99.90
39957;DHT22;48483;44.640;7.494;2022-12-17T12:33:18;7.00;99.90
39957;DHT22;48483;44.640;7.494;2022-12-17T12:36:07;7.00;99.90
39957;DHT22;48483;44.640;7.494;2022-12-17T12:38:55;7.00;99.90
39957;DHT22;48483;44.640;7.494;2022-12-17T12:41:46;7.00;99.90
39957;DHT22;48483;44.640;7.494;2022-12-17T12:44:40;7.00;99.90
39957;DHT22;48483;44.640;7.494;2022-12-17T12:47:38;7.00;99.90
39957;DHT22;48483;44.640;7.494;2022-12-17T12:50:28;7.00;99.90
39957;DHT22;48483;44.640;7.494;2022-12-17T12:53:16;7.00;99.90
39957;DHT22;48483;44.640;7.494;2022-12-17T12:56:02;7.00;99.90
39957;DHT22;48483;44.640;7.494;2022-12-17T12:58:47;7.00;99.90
39957;DHT22;48483;44.640;7.494;2022-12-17T13:01:35;7.00;99.90
39957;DHT22;48483;44.640;7.494;2022-12-17T13:04:30;7.00;99.90
39957;DHT22;48483;44.640;7.494;2022-12-17T13:07:23;7.00;99.90
39957;DHT22;48483;44.640;7.494;2022-12-17T13:09:52;6.90;99.90
39957;DHT22;48483;44.640;7.494;2022-12-17T13:12:39;6.90;99.90
39957;DHT22;48483;44.640;7.494;2022-12-17T13:15:17;7.00;99.90
39957;DHT22;48483;44.640;7.494;2022-12-17T13:17:55;7.00;99.90
39957;DHT22;48483;44.640;7.494;2022-12-17T13:20:27;7.00;99.90
39957;DHT22;48483;44.640;7.494;2022-12-17T13:23:12;7.00;99.90
39957;DHT22;48483;44.640;7.494;2022-12-17T13:25:40;7.00;99.90
39957;DHT22;48483;44.640;7.494;2022-12-17T13:28:24;7.00;99.90
39957;DHT22;48483;44.640;7.494;2022-12-17T13:31:00;6.90;99.90
39957;DHT22;48483;44.640;7.494;2022-12-17T13:33:37;6.90;99.90
39957;DHT22;48483;44.640;7.494;2022-12-17T13:36:14;6.90;99.90
39957;DHT22;48483;44.640;7.494;2022-12-17T13:38:49;6.90;99.90
39957;DHT22;48483;44.640;7.494;2022-12-17T13:41:19;6.90;99.90
39957;DHT22;48483;44.640;7.494;2022-12-17T13:43:48;6.90;99.90
39957;DHT22;48483;44.640;7.494;2022-12-17T13:46:21;6.80;99.90
39957;DHT22;48483;44.640;7.494;2022-12-17T13:48:54;6.80;99.90
39957;DHT22;48483;44.640;7.494;2022-12-17T13:51:23;6.80;99.90
39957;DHT22;48483;44.640;7.494;2022-12-17T13:53:52;6.80;99.90
39957;DHT22;48483;44.640;7.494;2022-12-17T13:56:22;6.90;99.90
39957;DHT22;48483;44.640;7.494;2022-12-17T13:58:51;6.90;99.90
39957;DHT22;48483;44.640;7.494;2022-12-17T14:01:18;6.90;99.90
39957;DHT22;48483;44.640;7.494;2022-12-17T14:03:49;6.90;99.90
39957;DHT22;48483;44.640;7.494;2022-12-17T14:06:18;6.90;99.90
39957;DHT22;48483;44.640;7.494;2022-12-17T14:08:47;6.80;99.90
39957;DHT22;48483;44.640;7.494;2022-12-17T14:11:14;6.80;99.90
39957;DHT22;48483;44.640;7.494;2022-12-17T14:14:00;6.90;99.90
39957;DHT22;48483;44.640;7.494;2022-12-17T14:16:27;6.90;99.90
39957;DHT22;48483;44.640;7.494;2022-12-17T14:18:56;6.90;99.90
39957;DHT22;48483;44.640;7.494;2022-12-17T14:21:26;6.90;99.90
39957;DHT22;48483;44.640;7.494;2022-12-17T14:23:54;6.80;99.90
39957;DHT22;48483;44.640;7.494;2022-12-17T14:26:21;6.80;99.90
39957;DHT22;48483;44.640;7.494;2022-12-17T14:28:49;6.80;99.90
39957;DHT22;48483;44.640;7.494;2022-12-17T14:31:19;6.80;99.90
39957;DHT22;48483;44.640;7.494;2022-12-17T14:33:46;6.80;99.90
39957;DHT22;48483;44.640;7.494;2022-12-17T14:36:19;6.80;99.90
39957;DHT22;48483;44.640;7.494;2022-12-17T14:38:55;6.80;99.90
39957;DHT22;48483;44.640;7.494;2022-12-17T14:41:23;6.70;99.90
39957;DHT22;48483;44.640;7.494;2022-12-17T14:44:16;6.70;99.90
39957;DHT22;48483;44.640;7.494;2022-12-17T14:46:44;6.70;99.90
39957;DHT22;48483;44.640;7.494;2022-12-17T14:49:16;6.60;99.90
39957;DHT22;48483;44.640;7.494;2022-12-17T14:51:43;6.60;99.90
39957;DHT22;48483;44.640;7.494;2022-12-17T14:54:27;6.50;99.90
39957;DHT22;48483;44.640;7.494;2022-12-17T14:56:56;6.50;99.90
39957;DHT22;48483;44.640;7.494;2022-12-17T14:59:28;6.40;99.90
39957;DHT22;48483;44.640;7.494;2022-12-17T15:01:55;6.40;99.90
39957;DHT22;48483;44.640;7.494;2022-12-17T15:04:22;6.30;99.90
39957;DHT22;48483;44.640;7.494;2022-12-17T15:06:52;6.20;99.90
39957;DHT22;48483;44.640;7.494;2022-12-17T15:09:21;6.20;99.90
39957;DHT22;48483;44.640;7.494;2022-12-17T15:11:47;6.20;99.90
39957;DHT22;48483;44.640;7.494;2022-12-17T15:14:14;6.20;99.90
39957;DHT22;48483;44.640;7.494;2022-12-17T15:16:41;6.10;99.90
39957;DHT22;48483;44.640;7.494;2022-12-17T15:19:08;6.10;99.90
39957;DHT22;48483;44.640;7.494;2022-12-17T15:21:35;6.00;99.90
39957;DHT22;48483;44.640;7.494;2022-12-17T15:24:01;5.90;99.90
39957;DHT22;48483;44.640;7.494;2022-12-17T15:26:29;5.90;99.90
39957;DHT22;48483;44.640;7.494;2022-12-17T15:28:56;5.90;99.90
39957;DHT22;48483;44.640;7.494;2022-12-17T15:31:24;5.80;99.90
39957;DHT22;48483;44.640;7.494;2022-12-17T15:33:50;5.80;99.90
39957;DHT22;48483;44.640;7.494;2022-12-17T15:36:17;5.70;99.90
39957;DHT22;48483;44.640;7.494;2022-12-17T15:38:44;5.70;99.90
39957;DHT22;48483;44.640;7.494;2022-12-17T15:41:11;5.60;99.90
39957;DHT22;48483;44.640;7.494;2022-12-17T15:43:58;5.60;99.90
39957;DHT22;48483;44.640;7.494;2022-12-17T15:46:25;5.60;99.90
39957;DHT22;48483;44.640;7.494;2022-12-17T15:48:52;5.50;99.90
39957;DHT22;48483;44.640;7.494;2022-12-17T15:51:18;5.50;99.90
39957;DHT22;48483;44.640;7.494;2022-12-17T15:53:46;5.40;99.90
39957;DHT22;48483;44.640;7.494;2022-12-17T15:56:20;5.40;99.90
39957;DHT22;48483;44.640;7.494;2022-12-17T15:58:47;5.30;99.90
39957;DHT22;48483;44.640;7.494;2022-12-17T16:01:16;5.30;99.90
39957;DHT22;48483;44.640;7.494;2022-12-17T16:03:43;5.30;99.90
39957;DHT22;48483;44.640;7.494;2022-12-17T16:06:10;5.30;99.90
39957;DHT22;48483;44.640;7.494;2022-12-17T16:08:37;5.20;99.90
39957;DHT22;48483;44.640;7.494;2022-12-17T16:11:06;5.30;99.90
39957;DHT22;48483;44.640;7.494;2022-12-17T16:13:35;5.20;99.90
39957;DHT22;48483;44.640;7.494;2022-12-17T16:16:02;5.20;99.90
39957;DHT22;48483;44.640;7.494;2022-12-17T16:18:32;5.10;99.90
39957;DHT22;48483;44.640;7.494;2022-12-17T16:21:07;5.00;99.90
39957;DHT22;48483;44.640;7.494;2022-12-17T16:23:34;5.00;99.90
39957;DHT22;48483;44.640;7.494;2022-12-17T16:26:03;5.00;99.90
39957;DHT22;48483;44.640;7.494;2022-12-17T16:28:30;4.90;99.90
39957;DHT22;48483;44.640;7.494;2022-12-17T16:30:58;4.90;99.90
39957;DHT22;48483;44.640;7.494;2022-12-17T16:33:26;4.90;99.90
39957;DHT22;48483;44.640;7.494;2022-12-17T16:35:53;4.90;99.90
39957;DHT22;48483;44.640;7.494;2022-12-17T16:38:20;5.00;99.90
39957;DHT22;48483;44.640;7.494;2022-12-17T16:40:47;4.90;99.90
39957;DHT22;48483;44.640;7.494;2022-12-17T16:43:14;4.90;99.90
39957;DHT22;48483;44.640;7.494;2022-12-17T16:45:46;5.00;99.90
39957;DHT22;48483;44.640;7.494;2022-12-17T16:48:13;4.90;99.90
39957;DHT22;48483;44.640;7.494;2022-12-17T16:50:39;4.90;99.90
39957;DHT22;48483;44.640;7.494;2022-12-17T16:53:11;4.90;99.90
39957;DHT22;48483;44.640;7.494;2022-12-17T16:55:41;4.90;99.90
39957;DHT22;48483;44.640;7.494;2022-12-17T16:58:13;4.90;99.90
39957;DHT22;48483;44.640;7.494;2022-12-17T17:00:39;4.90;99.90
39957;DHT22;48483;44.640;7.494;2022-12-17T17:03:06;4.80;99.90
39957;DHT22;48483;44.640;7.494;2022-12-17T17:05:34;4.90;99.90
39957;DHT22;48483;44.640;7.494;2022-12-17T17:08:02;4.90;99.90
39957;DHT22;48483;44.640;7.494;2022-12-17T17:10:30;4.80;99.90
39957;DHT22;48483;44.640;7.494;2022-12-17T17:12:57;4.70;99.90
39957;DHT22;48483;44.640;7.494;2022-12-17T17:15:23;4.60;99.90
39957;DHT22;48483;44.640;7.494;2022-12-17T17:17:50;4.60;99.90
39957;DHT22;48483;44.640;7.494;2022-12-17T17:20:17;4.60;99.90
39957;DHT22;48483;44.640;7.494;2022-12-17T17:22:44;4.60;99.90
39957;DHT22;48483;44.640;7.494;2022-12-17T17:25:10;4.60;99.90
39957;DHT22;48483;44.640;7.494;2022-12-17T17:27:38;4.60;99.90